sensor_id;sensor_type;location;lat;lon;timestamp;temperature;humidity
15127;DHT22;7664;52.008;4.748;2022-10-16T00:00:57;14.00;99.90
15127;DHT22;7664;52.008;4.748;2022-10-16T00:03:27;14.10;99.90
15127;DHT22;7664;52.008;4.748;2022-10-16T00:05:59;14.00;99.90
15127;DHT22;7664;52.008;4.748;2022-10-16T00:08:27;14.00;99.90
15127;DHT22;7664;52.008;4.748;2022-10-16T00:11:00;14.00;99.90
15127;DHT22;7664;52.008;4.748;2022-10-16T00:13:28;14.00;99.90
15127;DHT22;7664;52.008;4.748;2022-10-16T00:15:57;14.00;99.90
15127;DHT22;7664;52.008;4.748;2022-10-16T00:18:27;14.10;99.90
15127;DHT22;7664;52.008;4.748;2022-10-16T00:20:56;14.10;99.90
15127;DHT22;7664;52.008;4.748;2022-10-16T00:23:28;14.10;99.90
15127;DHT22;7664;52.008;4.748;2022-10-16T00:25:57;14.10;99.90
15127;DHT22;7664;52.008;4.748;2022-10-16T00:28:26;14.20;99.90
15127;DHT22;7664;52.008;4.748;2022-10-16T00:30:54;14.20;99.90
15127;DHT22;7664;52.008;4.748;2022-10-16T00:33:22;14.20;99.90
15127;DHT22;7664;52.008;4.748;2022-10-16T00:35:51;14.20;99.90
15127;DHT22;7664;52.008;4.748;2022-10-16T00:38:19;14.20;99.90
15127;DHT22;7664;52.008;4.748;2022-10-16T00:40:47;14.30;99.90
15127;DHT22;7664;52.008;4.748;2022-10-16T00:43:34;14.30;99.90
15127;DHT22;7664;52.008;4.748;2022-10-16T00:46:04;14.40;99.90
15127;DHT22;7664;52.008;4.748;2022-10-16T00:48:33;14.30;99.90
15127;DHT22;7664;52.008;4.748;2022-10-16T00:51:02;14.40;99.90
15127;DHT22;7664;52.008;4.748;2022-10-16T00:53:32;14.30;99.90
15127;DHT22;7664;52.008;4.748;2022-10-16T00:56:01;14.30;99.90
15127;DHT22;7664;52.008;4.748;2022-10-16T00:58:29;14.30;99.90
15127;DHT22;7664;52.008;4.748;2022-10-16T01:00:57;14.30;99.90
15127;DHT22;7664;52.008;4.748;2022-10-16T01:03:27;14.30;99.90
15127;DHT22;7664;52.008;4.748;2022-10-16T01:06:04;14.20;99.90
15127;DHT22;7664;52.008;4.748;2022-10-16T01:08:42;14.20;99.90
15127;DHT22;7664;52.008;4.748;2022-10-16T01:11:19;14.20;99.90
15127;DHT22;7664;52.008;4.748;2022-10-16T01:13:53;14.20;99.90
15127;DHT22;7664;52.008;4.748;2022-10-16T01:16:28;14.20;99.90
15127;DHT22;7664;52.008;4.748;2022-10-16T01:19:02;14.20;99.90
15127;DHT22;7664;52.008;4.748;2022-10-16T01:21:38;14.20;99.90
15127;DHT22;7664;52.008;4.748;2022-10-16T01:24:14;14.20;99.90
15127;DHT22;7664;52.008;4.748;2022-10-16T01:27:08;14.20;99.90
15127;DHT22;7664;52.008;4.748;2022-10-16T01:29:41;14.20;99.90
15127;DHT22;7664;52.008;4.748;2022-10-16T01:32:15;14.20;99.90
15127;DHT22;7664;52.008;4.748;2022-10-16T01:34:49;14.20;99.90
15127;DHT22;7664;52.008;4.748;2022-10-16T01:37:22;14.20;99.90
15127;DHT22;7664;52.008;4.748;2022-10-16T01:39:55;14.10;99.90
15127;DHT22;7664;52.008;4.748;2022-10-16T01:42:31;14.10;99.90
15127;DHT22;7664;52.008;4.748;2022-10-16T01:45:02;14.10;99.90
15127;DHT22;7664;52.008;4.748;2022-10-16T01:47:34;14.10;99.90
15127;DHT22;7664;52.008;4.748;2022-10-16T01:50:05;14.10;99.90
15127;DHT22;7664;52.008;4.748;2022-10-16T01:52:36;14.10;99.90
15127;DHT22;7664;52.008;4.748;2022-10-16T01:55:07;14.00;99.90
15127;DHT22;7664;52.008;4.748;2022-10-16T01:57:41;14.00;99.90
15127;DHT22;7664;52.008;4.748;2022-10-16T02:00:13;14.00;99.90
15127;DHT22;7664;52.008;4.748;2022-10-16T02:02:45;13.90;99.90
15127;DHT22;7664;52.008;4.748;2022-10-16T02:05:18;13.90;99.90
15127;DHT22;7664;52.008;4.748;2022-10-16T02:07:48;13.90;99.90
15127;DHT22;7664;52.008;4.748;2022-10-16T02:10:16;13.80;99.90
15127;DHT22;7664;52.008;4.748;2022-10-16T02:12:48;13.80;99.90
15127;DHT22;7664;52.008;4.748;2022-10-16T02:15:17;13.80;99.90
15127;DHT22;7664;52.008;4.748;2022-10-16T02:17:45;13.70;99.90
15127;DHT22;7664;52.008;4.748;2022-10-16T02:20:13;13.70;99.90
15127;DHT22;7664;52.008;4.748;2022-10-16T02:22:44;13.70;99.90
15127;DHT22;7664;52.008;4.748;2022-10-16T02:25:17;13.70;99.90
15127;DHT22;7664;52.008;4.748;2022-10-16T02:27:52;13.90;99.90
15127;DHT22;7664;52.008;4.748;2022-10-16T02:30:24;13.70;99.90
15127;DHT22;7664;52.008;4.748;2022-10-16T02:32:56;13.70;99.90
15127;DHT22;7664;52.008;4.748;2022-10-16T02:35:26;13.70;99.90
15127;DHT22;7664;52.008;4.748;2022-10-16T02:37:55;13.70;99.90
15127;DHT22;7664;52.008;4.748;2022-10-16T02:40:25;13.70;99.90
15127;DHT22;7664;52.008;4.748;2022-10-16T02:42:55;13.80;99.90
15127;DHT22;7664;52.008;4.748;2022-10-16T02:45:24;13.80;99.90
15127;DHT22;7664;52.008;4.748;2022-10-16T02:47:52;13.80;99.90
15127;DHT22;7664;52.008;4.748;2022-10-16T02:50:19;13.70;99.90
15127;DHT22;7664;52.008;4.748;2022-10-16T02:52:47;13.80;99.90
15127;DHT22;7664;52.008;4.748;2022-10-16T02:55:15;13.80;99.90
15127;DHT22;7664;52.008;4.748;2022-10-16T02:57:43;13.60;99.90
15127;DHT22;7664;52.008;4.748;2022-10-16T03:00:14;13.70;99.90
15127;DHT22;7664;52.008;4.748;2022-10-16T03:02:43;13.70;99.90
15127;DHT22;7664;52.008;4.748;2022-10-16T03:05:11;13.70;99.90
15127;DHT22;7664;52.008;4.748;2022-10-16T03:07:39;13.70;99.90
15127;DHT22;7664;52.008;4.748;2022-10-16T03:10:08;13.70;99.90
15127;DHT22;7664;52.008;4.748;2022-10-16T03:12:36;13.60;99.90
15127;DHT22;7664;52.008;4.748;2022-10-16T03:15:04;13.60;99.90
15127;DHT22;7664;52.008;4.748;2022-10-16T03:17:34;13.60;99.90
15127;DHT22;7664;52.008;4.748;2022-10-16T03:20:03;13.60;99.90
15127;DHT22;7664;52.008;4.748;2022-10-16T03:22:31;13.60;99.90
15127;DHT22;7664;52.008;4.748;2022-10-16T03:24:58;13.60;99.90
15127;DHT22;7664;52.008;4.748;2022-10-16T03:27:26;13.50;99.90
15127;DHT22;7664;52.008;4.748;2022-10-16T03:29:55;13.60;99.90
15127;DHT22;7664;52.008;4.748;2022-10-16T03:32:22;13.60;99.90
15127;DHT22;7664;52.008;4.748;2022-10-16T03:34:53;13.60;99.90
15127;DHT22;7664;52.008;4.748;2022-10-16T03:37:23;13.50;99.90
15127;DHT22;7664;52.008;4.748;2022-10-16T03:39:51;13.60;99.90
15127;DHT22;7664;52.008;4.748;2022-10-16T03:42:19;13.60;99.90
15127;DHT22;7664;52.008;4.748;2022-10-16T03:44:47;13.60;99.90
15127;DHT22;7664;52.008;4.748;2022-10-16T03:47:15;13.60;99.90
15127;DHT22;7664;52.008;4.748;2022-10-16T03:49:47;13.60;99.90
15127;DHT22;7664;52.008;4.748;2022-10-16T03:52:17;13.60;99.90
15127;DHT22;7664;52.008;4.748;2022-10-16T03:54:44;13.70;99.90
15127;DHT22;7664;52.008;4.748;2022-10-16T03:57:12;13.70;99.90
15127;DHT22;7664;52.008;4.748;2022-10-16T03:59:43;13.70;99.90
15127;DHT22;7664;52.008;4.748;2022-10-16T04:02:11;13.60;99.90
15127;DHT22;7664;52.008;4.748;2022-10-16T04:04:38;13.70;99.90
15127;DHT22;7664;52.008;4.748;2022-10-16T04:07:07;13.80;99.90
15127;DHT22;7664;52.008;4.748;2022-10-16T04:09:36;13.80;99.90
15127;DHT22;7664;52.008;4.748;2022-10-16T04:12:04;13.80;99.90
15127;DHT22;7664;52.008;4.748;2022-10-16T04:14:31;13.80;99.90
15127;DHT22;7664;52.008;4.748;2022-10-16T04:16:59;13.70;99.90
15127;DHT22;7664;52.008;4.748;2022-10-16T04:19:27;13.70;99.90
15127;DHT22;7664;52.008;4.748;2022-10-16T04:21:55;13.70;99.90
15127;DHT22;7664;52.008;4.748;2022-10-16T04:24:23;13.70;99.90
15127;DHT22;7664;52.008;4.748;2022-10-16T04:26:52;13.60;99.90
15127;DHT22;7664;52.008;4.748;2022-10-16T04:29:20;13.70;99.90
15127;DHT22;7664;52.008;4.748;2022-10-16T04:31:47;13.70;99.90
15127;DHT22;7664;52.008;4.748;2022-10-16T04:34:15;13.60;99.90
15127;DHT22;7664;52.008;4.748;2022-10-16T04:36:43;13.60;99.90
15127;DHT22;7664;52.008;4.748;2022-10-16T04:39:11;13.60;99.90
15127;DHT22;7664;52.008;4.748;2022-10-16T04:41:39;13.60;99.90
15127;DHT22;7664;52.008;4.748;2022-10-16T04:44:08;13.60;99.90
15127;DHT22;7664;52.008;4.748;2022-10-16T04:46:37;13.60;99.90
15127;DHT22;7664;52.008;4.748;2022-10-16T04:49:05;13.60;99.90
15127;DHT22;7664;52.008;4.748;2022-10-16T04:51:32;13.60;99.90
15127;DHT22;7664;52.008;4.748;2022-10-16T04:54:00;13.60;99.90
15127;DHT22;7664;52.008;4.748;2022-10-16T04:56:28;13.70;99.90
15127;DHT22;7664;52.008;4.748;2022-10-16T04:58:56;13.70;99.90
15127;DHT22;7664;52.008;4.748;2022-10-16T05:01:25;13.70;99.90
15127;DHT22;7664;52.008;4.748;2022-10-16T05:03:53;13.70;99.90
15127;DHT22;7664;52.008;4.748;2022-10-16T05:06:21;13.70;99.90
15127;DHT22;7664;52.008;4.748;2022-10-16T05:08:48;13.70;99.90
15127;DHT22;7664;52.008;4.748;2022-10-16T05:11:16;13.80;99.90
15127;DHT22;7664;52.008;4.748;2022-10-16T05:13:44;13.70;99.90
15127;DHT22;7664;52.008;4.748;2022-10-16T05:16:12;13.70;99.90
15127;DHT22;7664;52.008;4.748;2022-10-16T05:18:41;13.70;99.90
15127;DHT22;7664;52.008;4.748;2022-10-16T05:21:09;13.70;99.90
15127;DHT22;7664;52.008;4.748;2022-10-16T05:23:37;13.70;99.90
15127;DHT22;7664;52.008;4.748;2022-10-16T05:26:05;13.70;99.90
15127;DHT22;7664;52.008;4.748;2022-10-16T05:28:32;13.70;99.90
15127;DHT22;7664;52.008;4.748;2022-10-16T05:31:04;13.70;99.90
15127;DHT22;7664;52.008;4.748;2022-10-16T05:33:33;13.70;99.90
15127;DHT22;7664;52.008;4.748;2022-10-16T05:36:03;13.70;99.90
15127;DHT22;7664;52.008;4.748;2022-10-16T05:38:31;13.70;99.90
15127;DHT22;7664;52.008;4.748;2022-10-16T05:40:59;13.80;99.90
15127;DHT22;7664;52.008;4.748;2022-10-16T05:43:28;13.70;99.90
15127;DHT22;7664;52.008;4.748;2022-10-16T05:45:57;13.70;99.90
15127;DHT22;7664;52.008;4.748;2022-10-16T05:48:25;13.70;99.90
15127;DHT22;7664;52.008;4.748;2022-10-16T05:50:57;13.80;99.90
15127;DHT22;7664;52.008;4.748;2022-10-16T05:53:28;13.70;99.90
15127;DHT22;7664;52.008;4.748;2022-10-16T05:55:57;13.70;99.90
15127;DHT22;7664;52.008;4.748;2022-10-16T05:58:27;13.70;99.90
15127;DHT22;7664;52.008;4.748;2022-10-16T06:00:56;13.70;99.90
15127;DHT22;7664;52.008;4.748;2022-10-16T06:03:24;13.80;99.90
15127;DHT22;7664;52.008;4.748;2022-10-16T06:05:52;13.70;99.90
15127;DHT22;7664;52.008;4.748;2022-10-16T06:08:22;13.70;99.90
15127;DHT22;7664;52.008;4.748;2022-10-16T06:11:02;13.80;99.90
15127;DHT22;7664;52.008;4.748;2022-10-16T06:13:30;13.80;99.90
15127;DHT22;7664;52.008;4.748;2022-10-16T06:15:59;13.90;99.90
15127;DHT22;7664;52.008;4.748;2022-10-16T06:18:28;13.80;99.90
15127;DHT22;7664;52.008;4.748;2022-10-16T06:20:56;13.80;99.90
15127;DHT22;7664;52.008;4.748;2022-10-16T06:23:25;13.80;99.90
15127;DHT22;7664;52.008;4.748;2022-10-16T06:25:53;13.80;99.90
15127;DHT22;7664;52.008;4.748;2022-10-16T06:28:22;13.90;99.90
15127;DHT22;7664;52.008;4.748;2022-10-16T06:30:58;13.90;99.90
15127;DHT22;7664;52.008;4.748;2022-10-16T06:33:33;13.90;99.90
15127;DHT22;7664;52.008;4.748;2022-10-16T06:36:02;13.90;99.90
15127;DHT22;7664;52.008;4.748;2022-10-16T06:38:30;13.90;99.90
15127;DHT22;7664;52.008;4.748;2022-10-16T06:40:58;13.90;99.90
15127;DHT22;7664;52.008;4.748;2022-10-16T06:43:30;13.90;99.90
15127;DHT22;7664;52.008;4.748;2022-10-16T06:46:00;13.90;99.90
15127;DHT22;7664;52.008;4.748;2022-10-16T06:48:28;14.00;99.90
15127;DHT22;7664;52.008;4.748;2022-10-16T06:50:57;14.00;99.90
15127;DHT22;7664;52.008;4.748;2022-10-16T06:53:27;14.00;99.90
15127;DHT22;7664;52.008;4.748;2022-10-16T06:56:10;14.00;99.90
15127;DHT22;7664;52.008;4.748;2022-10-16T06:58:41;14.00;99.90
15127;DHT22;7664;52.008;4.748;2022-10-16T07:01:10;14.00;99.90
15127;DHT22;7664;52.008;4.748;2022-10-16T07:03:40;14.00;99.90
15127;DHT22;7664;52.008;4.748;2022-10-16T07:06:09;14.10;99.90
15127;DHT22;7664;52.008;4.748;2022-10-16T07:08:40;14.10;99.90
15127;DHT22;7664;52.008;4.748;2022-10-16T07:11:10;14.10;99.90
15127;DHT22;7664;52.008;4.748;2022-10-16T07:13:41;14.10;99.90
15127;DHT22;7664;52.008;4.748;2022-10-16T07:16:11;14.10;99.90
15127;DHT22;7664;52.008;4.748;2022-10-16T07:18:40;14.20;99.90
15127;DHT22;7664;52.008;4.748;2022-10-16T07:21:11;14.20;99.90
15127;DHT22;7664;52.008;4.748;2022-10-16T07:23:39;14.20;99.90
15127;DHT22;7664;52.008;4.748;2022-10-16T07:26:07;14.20;99.90
15127;DHT22;7664;52.008;4.748;2022-10-16T07:28:36;14.10;99.90
15127;DHT22;7664;52.008;4.748;2022-10-16T07:31:09;14.10;99.90
15127;DHT22;7664;52.008;4.748;2022-10-16T07:33:39;14.10;99.90
15127;DHT22;7664;52.008;4.748;2022-10-16T07:36:08;14.10;99.90
15127;DHT22;7664;52.008;4.748;2022-10-16T07:38:42;14.10;99.90
15127;DHT22;7664;52.008;4.748;2022-10-16T07:41:11;14.10;99.90
15127;DHT22;7664;52.008;4.748;2022-10-16T07:43:39;14.10;99.90
15127;DHT22;7664;52.008;4.748;2022-10-16T07:46:09;14.10;99.90
15127;DHT22;7664;52.008;4.748;2022-10-16T07:48:37;14.20;99.90
15127;DHT22;7664;52.008;4.748;2022-10-16T07:51:06;14.20;99.90
15127;DHT22;7664;52.008;4.748;2022-10-16T07:53:34;14.10;99.90
15127;DHT22;7664;52.008;4.748;2022-10-16T07:56:03;14.20;99.90
15127;DHT22;7664;52.008;4.748;2022-10-16T07:58:33;14.20;99.90
15127;DHT22;7664;52.008;4.748;2022-10-16T08:01:04;14.20;99.90
15127;DHT22;7664;52.008;4.748;2022-10-16T08:03:34;14.20;99.90
15127;DHT22;7664;52.008;4.748;2022-10-16T08:06:03;14.30;99.90
15127;DHT22;7664;52.008;4.748;2022-10-16T08:08:31;14.30;99.90
15127;DHT22;7664;52.008;4.748;2022-10-16T08:10:59;14.40;99.90
15127;DHT22;7664;52.008;4.748;2022-10-16T08:13:30;14.40;99.90
15127;DHT22;7664;52.008;4.748;2022-10-16T08:15:58;14.40;99.90
15127;DHT22;7664;52.008;4.748;2022-10-16T08:18:26;14.40;99.90
15127;DHT22;7664;52.008;4.748;2022-10-16T08:20:59;14.40;99.90
15127;DHT22;7664;52.008;4.748;2022-10-16T08:23:28;14.50;99.90
15127;DHT22;7664;52.008;4.748;2022-10-16T08:26:01;14.50;99.90
15127;DHT22;7664;52.008;4.748;2022-10-16T08:28:29;14.50;99.90
15127;DHT22;7664;52.008;4.748;2022-10-16T08:31:05;14.50;99.90
15127;DHT22;7664;52.008;4.748;2022-10-16T08:33:33;14.50;99.90
15127;DHT22;7664;52.008;4.748;2022-10-16T08:36:05;14.60;99.90
15127;DHT22;7664;52.008;4.748;2022-10-16T08:38:33;14.60;99.90
15127;DHT22;7664;52.008;4.748;2022-10-16T08:41:35;14.60;99.90
15127;DHT22;7664;52.008;4.748;2022-10-16T08:44:40;14.80;99.90
15127;DHT22;7664;52.008;4.748;2022-10-16T08:47:16;14.80;99.90
15127;DHT22;7664;52.008;4.748;2022-10-16T08:49:56;14.80;99.90
15127;DHT22;7664;52.008;4.748;2022-10-16T08:52:30;14.90;99.90
15127;DHT22;7664;52.008;4.748;2022-10-16T08:55:00;15.00;99.90
15127;DHT22;7664;52.008;4.748;2022-10-16T08:57:29;15.00;99.90
15127;DHT22;7664;52.008;4.748;2022-10-16T09:00:00;15.00;99.90
15127;DHT22;7664;52.008;4.748;2022-10-16T09:02:36;15.10;99.90
15127;DHT22;7664;52.008;4.748;2022-10-16T09:05:41;15.10;99.90
15127;DHT22;7664;52.008;4.748;2022-10-16T09:08:19;15.10;99.90
15127;DHT22;7664;52.008;4.748;2022-10-16T09:10:57;15.20;99.90
15127;DHT22;7664;52.008;4.748;2022-10-16T09:13:29;15.30;99.90
15127;DHT22;7664;52.008;4.748;2022-10-16T09:16:04;15.30;99.90
15127;DHT22;7664;52.008;4.748;2022-10-16T09:18:45;15.30;99.90
15127;DHT22;7664;52.008;4.748;2022-10-16T09:21:19;15.50;99.90
15127;DHT22;7664;52.008;4.748;2022-10-16T09:23:50;15.40;99.90
15127;DHT22;7664;52.008;4.748;2022-10-16T09:26:18;15.40;99.90
15127;DHT22;7664;52.008;4.748;2022-10-16T09:28:52;15.50;99.90
15127;DHT22;7664;52.008;4.748;2022-10-16T09:31:22;15.50;99.90
15127;DHT22;7664;52.008;4.748;2022-10-16T09:33:53;15.50;99.90
15127;DHT22;7664;52.008;4.748;2022-10-16T09:36:23;15.50;99.90
15127;DHT22;7664;52.008;4.748;2022-10-16T09:39:01;15.60;99.90
15127;DHT22;7664;52.008;4.748;2022-10-16T09:41:30;15.60;99.90
15127;DHT22;7664;52.008;4.748;2022-10-16T09:44:00;15.60;99.90
15127;DHT22;7664;52.008;4.748;2022-10-16T09:46:30;15.70;99.90
15127;DHT22;7664;52.008;4.748;2022-10-16T09:49:00;15.70;99.90
15127;DHT22;7664;52.008;4.748;2022-10-16T09:51:30;15.70;99.90
15127;DHT22;7664;52.008;4.748;2022-10-16T09:54:01;15.70;99.90
15127;DHT22;7664;52.008;4.748;2022-10-16T09:56:31;15.70;99.90
15127;DHT22;7664;52.008;4.748;2022-10-16T09:59:01;15.80;99.90
15127;DHT22;7664;52.008;4.748;2022-10-16T10:01:36;15.80;99.90
15127;DHT22;7664;52.008;4.748;2022-10-16T10:04:05;15.90;99.90
15127;DHT22;7664;52.008;4.748;2022-10-16T10:06:35;15.90;99.90
15127;DHT22;7664;52.008;4.748;2022-10-16T10:09:17;16.00;99.90
15127;DHT22;7664;52.008;4.748;2022-10-16T10:11:52;16.00;99.90
15127;DHT22;7664;52.008;4.748;2022-10-16T10:14:26;16.00;99.90
15127;DHT22;7664;52.008;4.748;2022-10-16T10:17:12;16.00;99.90
15127;DHT22;7664;52.008;4.748;2022-10-16T10:19:50;16.10;99.90
15127;DHT22;7664;52.008;4.748;2022-10-16T10:22:25;16.10;99.90
15127;DHT22;7664;52.008;4.748;2022-10-16T10:24:57;16.10;99.90
15127;DHT22;7664;52.008;4.748;2022-10-16T10:27:34;16.10;99.90
15127;DHT22;7664;52.008;4.748;2022-10-16T10:30:10;16.10;99.90
15127;DHT22;7664;52.008;4.748;2022-10-16T10:32:52;16.10;99.90
15127;DHT22;7664;52.008;4.748;2022-10-16T10:35:29;16.10;99.90
15127;DHT22;7664;52.008;4.748;2022-10-16T10:38:06;16.20;99.90
15127;DHT22;7664;52.008;4.748;2022-10-16T10:40:49;16.20;99.90
15127;DHT22;7664;52.008;4.748;2022-10-16T10:43:28;16.30;99.90
15127;DHT22;7664;52.008;4.748;2022-10-16T10:46:02;16.40;99.90
15127;DHT22;7664;52.008;4.748;2022-10-16T10:48:55;16.50;99.90
15127;DHT22;7664;52.008;4.748;2022-10-16T10:51:31;16.50;99.90
15127;DHT22;7664;52.008;4.748;2022-10-16T10:54:13;16.60;99.90
15127;DHT22;7664;52.008;4.748;2022-10-16T10:56:47;16.70;99.90
15127;DHT22;7664;52.008;4.748;2022-10-16T10:59:47;16.80;99.90
15127;DHT22;7664;52.008;4.748;2022-10-16T11:02:24;16.90;99.90
15127;DHT22;7664;52.008;4.748;2022-10-16T11:05:08;16.90;99.90
15127;DHT22;7664;52.008;4.748;2022-10-16T11:07:47;17.00;99.90
15127;DHT22;7664;52.008;4.748;2022-10-16T11:10:20;17.00;99.90
15127;DHT22;7664;52.008;4.748;2022-10-16T11:12:56;17.00;99.90
15127;DHT22;7664;52.008;4.748;2022-10-16T11:15:29;17.10;99.90
15127;DHT22;7664;52.008;4.748;2022-10-16T11:18:03;17.10;99.90
15127;DHT22;7664;52.008;4.748;2022-10-16T11:20:34;17.10;99.90
15127;DHT22;7664;52.008;4.748;2022-10-16T11:23:10;17.10;99.90
15127;DHT22;7664;52.008;4.748;2022-10-16T11:25:42;17.20;99.90
15127;DHT22;7664;52.008;4.748;2022-10-16T11:28:15;17.20;99.90
15127;DHT22;7664;52.008;4.748;2022-10-16T11:30:50;17.10;99.90
15127;DHT22;7664;52.008;4.748;2022-10-16T11:33:27;17.10;99.90
15127;DHT22;7664;52.008;4.748;2022-10-16T11:36:03;17.20;99.90
15127;DHT22;7664;52.008;4.748;2022-10-16T11:38:38;17.20;99.90
15127;DHT22;7664;52.008;4.748;2022-10-16T11:41:16;17.10;99.90
15127;DHT22;7664;52.008;4.748;2022-10-16T11:43:52;17.10;99.90
15127;DHT22;7664;52.008;4.748;2022-10-16T11:46:24;17.10;99.90
15127;DHT22;7664;52.008;4.748;2022-10-16T11:49:00;17.10;99.90
15127;DHT22;7664;52.008;4.748;2022-10-16T11:51:35;17.00;99.90
15127;DHT22;7664;52.008;4.748;2022-10-16T11:54:10;17.00;99.90
15127;DHT22;7664;52.008;4.748;2022-10-16T11:56:43;17.00;99.90
15127;DHT22;7664;52.008;4.748;2022-10-16T11:59:20;16.90;99.90
15127;DHT22;7664;52.008;4.748;2022-10-16T12:01:54;17.00;99.90
15127;DHT22;7664;52.008;4.748;2022-10-16T12:04:29;17.00;99.90
15127;DHT22;7664;52.008;4.748;2022-10-16T12:07:04;17.10;99.90
15127;DHT22;7664;52.008;4.748;2022-10-16T12:09:37;17.20;99.90
15127;DHT22;7664;52.008;4.748;2022-10-16T12:12:24;17.20;99.90
15127;DHT22;7664;52.008;4.748;2022-10-16T12:15:19;17.20;99.90
15127;DHT22;7664;52.008;4.748;2022-10-16T12:18:10;17.20;99.90
15127;DHT22;7664;52.008;4.748;2022-10-16T12:20:54;17.10;99.90
15127;DHT22;7664;52.008;4.748;2022-10-16T12:23:25;17.20;99.90
15127;DHT22;7664;52.008;4.748;2022-10-16T12:25:54;17.20;99.90
15127;DHT22;7664;52.008;4.748;2022-10-16T12:28:27;17.10;99.90
15127;DHT22;7664;52.008;4.748;2022-10-16T12:30:58;17.10;99.90
15127;DHT22;7664;52.008;4.748;2022-10-16T12:33:28;17.10;99.90
15127;DHT22;7664;52.008;4.748;2022-10-16T12:35:58;17.00;99.90
15127;DHT22;7664;52.008;4.748;2022-10-16T12:38:28;17.00;99.90
15127;DHT22;7664;52.008;4.748;2022-10-16T12:41:00;17.00;99.90
15127;DHT22;7664;52.008;4.748;2022-10-16T12:43:39;17.00;99.90
15127;DHT22;7664;52.008;4.748;2022-10-16T12:49:23;17.10;99.90
15127;DHT22;7664;52.008;4.748;2022-10-16T12:51:57;17.10;99.90
15127;DHT22;7664;52.008;4.748;2022-10-16T12:54:28;17.10;99.90
15127;DHT22;7664;52.008;4.748;2022-10-16T12:57:09;17.20;99.90
15127;DHT22;7664;52.008;4.748;2022-10-16T12:59:46;17.20;99.90
15127;DHT22;7664;52.008;4.748;2022-10-16T13:05:46;17.30;99.90
15127;DHT22;7664;52.008;4.748;2022-10-16T13:08:29;17.30;99.90
15127;DHT22;7664;52.008;4.748;2022-10-16T13:11:05;17.40;99.90
15127;DHT22;7664;52.008;4.748;2022-10-16T13:13:51;17.40;99.90
15127;DHT22;7664;52.008;4.748;2022-10-16T13:16:29;17.40;99.90
15127;DHT22;7664;52.008;4.748;2022-10-16T13:19:10;17.50;99.90
15127;DHT22;7664;52.008;4.748;2022-10-16T13:21:48;17.60;99.90
15127;DHT22;7664;52.008;4.748;2022-10-16T13:24:28;17.60;99.90
15127;DHT22;7664;52.008;4.748;2022-10-16T13:27:09;17.60;99.90
15127;DHT22;7664;52.008;4.748;2022-10-16T13:29:39;17.70;99.90
15127;DHT22;7664;52.008;4.748;2022-10-16T13:32:14;17.70;99.90
15127;DHT22;7664;52.008;4.748;2022-10-16T13:34:44;17.80;99.90
15127;DHT22;7664;52.008;4.748;2022-10-16T13:37:19;17.80;99.90
15127;DHT22;7664;52.008;4.748;2022-10-16T13:39:48;17.80;99.90
15127;DHT22;7664;52.008;4.748;2022-10-16T13:42:23;17.90;99.90
15127;DHT22;7664;52.008;4.748;2022-10-16T13:44:55;17.90;99.90
15127;DHT22;7664;52.008;4.748;2022-10-16T13:47:25;17.90;99.90
15127;DHT22;7664;52.008;4.748;2022-10-16T13:50:04;17.90;99.90
15127;DHT22;7664;52.008;4.748;2022-10-16T13:52:34;17.90;99.90
15127;DHT22;7664;52.008;4.748;2022-10-16T13:55:04;18.00;99.90
15127;DHT22;7664;52.008;4.748;2022-10-16T13:57:32;18.00;99.90
15127;DHT22;7664;52.008;4.748;2022-10-16T14:00:00;18.00;99.90
15127;DHT22;7664;52.008;4.748;2022-10-16T14:02:33;18.00;99.90
15127;DHT22;7664;52.008;4.748;2022-10-16T14:05:04;18.00;99.90
15127;DHT22;7664;52.008;4.748;2022-10-16T14:07:37;18.00;99.90
15127;DHT22;7664;52.008;4.748;2022-10-16T14:10:20;18.00;99.90
15127;DHT22;7664;52.008;4.748;2022-10-16T14:12:55;18.00;99.90
15127;DHT22;7664;52.008;4.748;2022-10-16T14:15:24;18.00;99.90
15127;DHT22;7664;52.008;4.748;2022-10-16T14:17:53;18.00;99.90
15127;DHT22;7664;52.008;4.748;2022-10-16T14:20:26;18.00;99.90
15127;DHT22;7664;52.008;4.748;2022-10-16T14:23:03;18.00;99.90
15127;DHT22;7664;52.008;4.748;2022-10-16T14:25:32;18.00;99.90
15127;DHT22;7664;52.008;4.748;2022-10-16T14:28:02;18.00;99.90
15127;DHT22;7664;52.008;4.748;2022-10-16T14:30:33;18.00;99.90
15127;DHT22;7664;52.008;4.748;2022-10-16T14:33:02;18.00;99.90
15127;DHT22;7664;52.008;4.748;2022-10-16T14:35:33;18.00;99.90
15127;DHT22;7664;52.008;4.748;2022-10-16T14:38:04;18.00;99.90
15127;DHT22;7664;52.008;4.748;2022-10-16T14:40:35;18.00;99.90
15127;DHT22;7664;52.008;4.748;2022-10-16T14:43:04;18.00;99.90
15127;DHT22;7664;52.008;4.748;2022-10-16T14:45:34;17.90;99.90
15127;DHT22;7664;52.008;4.748;2022-10-16T14:48:05;17.90;99.90
15127;DHT22;7664;52.008;4.748;2022-10-16T14:50:34;17.90;99.90
15127;DHT22;7664;52.008;4.748;2022-10-16T14:53:08;17.90;99.90
15127;DHT22;7664;52.008;4.748;2022-10-16T14:55:38;17.90;99.90
15127;DHT22;7664;52.008;4.748;2022-10-16T14:58:11;17.90;99.90
15127;DHT22;7664;52.008;4.748;2022-10-16T15:00:42;17.90;99.90
15127;DHT22;7664;52.008;4.748;2022-10-16T15:03:10;17.80;99.90
15127;DHT22;7664;52.008;4.748;2022-10-16T15:05:38;17.90;99.90
15127;DHT22;7664;52.008;4.748;2022-10-16T15:08:08;17.90;99.90
15127;DHT22;7664;52.008;4.748;2022-10-16T15:10:40;17.80;99.90
15127;DHT22;7664;52.008;4.748;2022-10-16T15:13:11;17.80;99.90
15127;DHT22;7664;52.008;4.748;2022-10-16T15:15:43;17.80;99.90
15127;DHT22;7664;52.008;4.748;2022-10-16T15:18:11;17.80;99.90
15127;DHT22;7664;52.008;4.748;2022-10-16T15:20:41;17.80;99.90
15127;DHT22;7664;52.008;4.748;2022-10-16T15:23:14;17.70;99.90
15127;DHT22;7664;52.008;4.748;2022-10-16T15:25:45;17.70;99.90
15127;DHT22;7664;52.008;4.748;2022-10-16T15:28:14;17.70;99.90
15127;DHT22;7664;52.008;4.748;2022-10-16T15:30:42;17.60;99.90
15127;DHT22;7664;52.008;4.748;2022-10-16T15:33:14;17.60;99.90
15127;DHT22;7664;52.008;4.748;2022-10-16T15:35:42;17.50;99.90
15127;DHT22;7664;52.008;4.748;2022-10-16T15:38:13;17.50;99.90
15127;DHT22;7664;52.008;4.748;2022-10-16T15:40:41;17.50;99.90
15127;DHT22;7664;52.008;4.748;2022-10-16T15:43:09;17.50;99.90
15127;DHT22;7664;52.008;4.748;2022-10-16T15:45:38;17.40;99.90
15127;DHT22;7664;52.008;4.748;2022-10-16T15:48:07;17.40;99.90
15127;DHT22;7664;52.008;4.748;2022-10-16T15:50:38;17.30;99.90
15127;DHT22;7664;52.008;4.748;2022-10-16T15:53:06;17.30;99.90
15127;DHT22;7664;52.008;4.748;2022-10-16T15:55:35;17.30;99.90
15127;DHT22;7664;52.008;4.748;2022-10-16T15:58:04;17.20;99.90
15127;DHT22;7664;52.008;4.748;2022-10-16T16:00:32;17.20;99.90
15127;DHT22;7664;52.008;4.748;2022-10-16T16:03:00;17.20;99.90
15127;DHT22;7664;52.008;4.748;2022-10-16T16:05:28;17.20;99.90
15127;DHT22;7664;52.008;4.748;2022-10-16T16:07:57;17.10;99.90
15127;DHT22;7664;52.008;4.748;2022-10-16T16:10:25;17.10;99.90
15127;DHT22;7664;52.008;4.748;2022-10-16T16:12:54;17.00;99.90
15127;DHT22;7664;52.008;4.748;2022-10-16T16:15:22;17.10;99.90
15127;DHT22;7664;52.008;4.748;2022-10-16T16:17:50;17.00;99.90
15127;DHT22;7664;52.008;4.748;2022-10-16T16:20:18;17.00;99.90